createdAt,value
2017-07-30T00:02:12.354Z,100346.78
2017-07-30T00:04:48.095Z,100342.89
2017-07-30T00:07:22.862Z,100348.91
2017-07-30T00:09:57.519Z,100343.09
2017-07-30T00:12:32.000Z,100345.58
2017-07-30T00:15:06.621Z,100343.12
2017-07-30T00:17:41.251Z,100333.92
2017-07-30T00:20:15.975Z,100331.31
2017-07-30T00:22:50.603Z,100331.53
2017-07-30T00:25:25.347Z,100336.52
2017-07-30T00:27:59.947Z,100332.19
2017-07-30T00:30:34.788Z,100325.55
2017-07-30T00:33:09.290Z,100325.27
2017-07-30T00:35:44.087Z,100326.39
2017-07-30T00:38:18.657Z,100320.84
2017-07-30T00:40:53.321Z,100322.59
2017-07-30T00:43:28.012Z,100324.67
2017-07-30T00:46:02.790Z,100317.33
2017-07-30T00:48:37.469Z,100320.06
2017-07-30T00:51:12.159Z,100311.67
2017-07-30T00:53:46.931Z,100315.85
2017-07-30T00:56:21.571Z,100302.72
2017-07-30T00:58:56.174Z,100308.98
2017-07-30T01:01:30.924Z,100296.89
2017-07-30T01:04:05.640Z,100299.81
2017-07-30T01:06:40.487Z,100296.30
2017-07-30T01:09:15.204Z,100299.48
2017-07-30T01:11:49.863Z,100290.50
2017-07-30T01:14:25.516Z,100282.03
2017-07-30T01:17:00.208Z,100286.33
2017-07-30T01:19:34.968Z,100284.35
2017-07-30T01:22:10.592Z,100281.09
2017-07-30T01:24:45.215Z,100279.26
2017-07-30T01:27:19.945Z,100281.73
2017-07-30T01:29:55.674Z,100281.52
2017-07-30T01:32:30.451Z,100271.13
2017-07-30T01:35:05.150Z,100269.69
2017-07-30T01:37:39.779Z,100263.61
2017-07-30T01:40:14.587Z,100270.36
2017-07-30T01:42:49.046Z,100266.47
2017-07-30T01:45:23.603Z,100269.65
2017-07-30T01:47:57.938Z,100269.61
2017-07-30T01:50:32.389Z,100260.59
2017-07-30T01:53:07.462Z,100256.03
2017-07-30T01:55:41.834Z,100258.59
2017-07-30T01:58:17.554Z,100253.86
2017-07-30T02:00:51.879Z,100262.61
2017-07-30T02:03:26.782Z,100261.59
2017-07-30T02:06:01.518Z,100261.69
2017-07-30T02:08:36.206Z,100264.37
2017-07-30T02:11:10.568Z,100262.02
2017-07-30T02:13:45.605Z,100262.01
2017-07-30T02:16:20.107Z,100263.60
2017-07-30T02:18:54.860Z,100265.80
2017-07-30T02:21:29.035Z,100259.17
2017-07-30T02:24:03.726Z,100265.58
2017-07-30T02:26:38.631Z,100261.80
2017-07-30T02:29:13.323Z,100258.02
2017-07-30T02:31:47.989Z,100250.25
2017-07-30T02:34:23.639Z,100253.91
2017-07-30T02:36:58.355Z,100246.10
2017-07-30T02:39:33.055Z,100252.61
2017-07-30T02:42:07.258Z,100248.84
2017-07-30T02:44:43.293Z,100246.00
2017-07-30T02:47:17.961Z,100241.48
2017-07-30T02:49:52.512Z,100243.39
2017-07-30T02:52:27.308Z,100229.50
2017-07-30T02:55:02.577Z,100242.91
2017-07-30T02:57:37.166Z,100242.98
2017-07-30T03:00:12.606Z,100237.13
2017-07-30T03:02:47.483Z,100235.23
2017-07-30T03:05:22.151Z,100222.36
2017-07-30T03:07:57.371Z,100220.98
2017-07-30T03:10:32.211Z,100222.78
2017-07-30T03:13:06.739Z,100213.17
2017-07-30T03:15:41.447Z,100204.31
2017-07-30T03:18:16.121Z,100205.77
2017-07-30T03:20:50.819Z,100203.77
2017-07-30T03:23:25.306Z,100192.34
2017-07-30T03:25:59.983Z,100202.28
2017-07-30T03:28:34.647Z,100195.53
2017-07-30T03:31:09.278Z,100192.36
2017-07-30T03:33:45.023Z,100190.23
2017-07-30T03:36:20.786Z,100190.84
2017-07-30T03:38:55.384Z,100182.50
2017-07-30T03:41:30.214Z,100182.83
2017-07-30T03:44:04.896Z,100176.80
2017-07-30T03:46:40.522Z,100168.21
2017-07-30T03:49:15.156Z,100173.70
2017-07-30T03:51:49.778Z,100171.98
2017-07-30T03:54:25.451Z,100168.09
2017-07-30T03:57:00.174Z,100157.30
2017-07-30T03:59:34.883Z,100150.36
2017-07-30T04:02:09.749Z,100151.08
2017-07-30T04:04:45.067Z,100156.03
2017-07-30T04:07:19.759Z,100149.69
2017-07-30T04:09:54.498Z,100149.25
2017-07-30T04:12:29.335Z,100146.72
2017-07-30T04:15:03.870Z,100145.87
2017-07-30T04:17:38.701Z,100138.06
2017-07-30T04:20:14.430Z,100135.83
2017-07-30T04:22:49.082Z,100133.12
2017-07-30T04:25:23.676Z,100135.64
2017-07-30T04:27:58.415Z,100138.70
2017-07-30T04:30:33.046Z,100131.84
2017-07-30T04:33:07.594Z,100136.47
2017-07-30T04:35:42.278Z,100138.60
2017-07-30T04:38:17.026Z,100144.09
2017-07-30T04:40:51.647Z,100136.69
2017-07-30T04:43:26.303Z,100135.53
2017-07-30T04:46:01.016Z,100138.81
2017-07-30T04:48:36.859Z,100137.55
2017-07-30T04:51:11.406Z,100138.52
2017-07-30T04:53:45.958Z,100132.17
2017-07-30T04:56:20.664Z,100143.47
2017-07-30T04:58:55.363Z,100131.02
2017-07-30T05:01:30.067Z,100122.03
2017-07-30T05:04:04.715Z,100117.80
2017-07-30T05:06:39.475Z,100124.05
2017-07-30T05:09:15.194Z,100132.17
2017-07-30T05:11:49.839Z,100137.25
2017-07-30T05:14:25.631Z,100140.91
2017-07-30T05:17:00.410Z,100142.34
2017-07-30T05:19:35.162Z,100135.26
2017-07-30T05:22:09.600Z,100140.42
2017-07-30T05:24:44.222Z,100125.20
2017-07-30T05:27:18.811Z,100145.28
2017-07-30T05:29:53.471Z,100120.85
2017-07-30T05:32:28.256Z,100112.64
2017-07-30T05:35:03.024Z,100121.78
2017-07-30T05:37:37.780Z,100121.01
2017-07-30T05:40:12.612Z,100121.83
2017-07-30T05:42:47.219Z,100114.61
2017-07-30T05:45:21.832Z,100112.48
2017-07-30T05:47:56.556Z,100096.08
2017-07-30T05:50:31.110Z,100103.84
2017-07-30T05:53:05.786Z,100108.60
2017-07-30T05:55:40.610Z,100097.35
2017-07-30T05:58:15.255Z,100100.42
2017-07-30T06:00:49.738Z,100093.81
2017-07-30T06:03:24.633Z,100094.03
2017-07-30T06:06:00.160Z,100096.19
2017-07-30T06:08:35.007Z,100091.40
2017-07-30T06:11:09.602Z,100097.52
2017-07-30T06:13:44.019Z,100098.82
2017-07-30T06:16:19.382Z,100098.34
2017-07-30T06:18:54.100Z,100100.35
2017-07-30T06:21:28.820Z,100098.78
2017-07-30T06:24:03.515Z,100098.77
2017-07-30T06:26:39.147Z,100093.91
2017-07-30T06:29:13.679Z,100095.48
2017-07-30T06:31:48.443Z,100092.20
2017-07-30T06:34:23.198Z,100092.00
2017-07-30T06:36:57.926Z,100095.59
2017-07-30T06:39:32.556Z,100088.59
2017-07-30T06:42:07.179Z,100087.30
2017-07-30T06:44:41.833Z,100085.61
2017-07-30T06:47:16.552Z,100084.48
2017-07-30T06:49:50.970Z,100088.26
2017-07-30T06:52:25.492Z,100079.27
2017-07-30T06:55:00.196Z,100074.95
2017-07-30T06:57:34.858Z,100074.42
2017-07-30T07:00:09.564Z,100083.08
2017-07-30T07:02:44.123Z,100079.77
2017-07-30T07:05:18.687Z,100079.77
2017-07-30T07:07:53.005Z,100074.96
2017-07-30T07:10:27.957Z,100089.05
2017-07-30T07:13:02.639Z,100089.70
2017-07-30T07:15:37.232Z,100088.88
2017-07-30T07:18:11.844Z,100087.15
2017-07-30T07:20:46.570Z,100069.75
2017-07-30T07:23:21.191Z,100081.92
2017-07-30T07:25:55.817Z,100078.67
2017-07-30T07:28:30.442Z,100085.16
2017-07-30T07:31:05.066Z,100081.13
2017-07-30T07:33:39.795Z,100081.09
2017-07-30T07:36:14.330Z,100086.08
2017-07-30T07:38:50.175Z,100079.38
2017-07-30T07:41:25.843Z,100079.88
2017-07-30T07:44:00.557Z,100065.34
2017-07-30T07:46:35.157Z,100067.16
2017-07-30T07:49:09.888Z,100068.67
2017-07-30T07:51:44.530Z,100074.77
2017-07-30T07:54:18.943Z,100063.61
2017-07-30T07:56:53.787Z,100062.92
2017-07-30T07:59:28.530Z,100050.64
2017-07-30T08:02:03.146Z,100053.38
2017-07-30T08:04:37.651Z,100057.18
2017-07-30T08:07:12.355Z,100046.84
2017-07-30T08:09:47.067Z,100051.53
2017-07-30T08:12:21.735Z,100056.32
2017-07-30T08:14:56.424Z,100059.08
2017-07-30T08:17:31.091Z,100069.42
2017-07-30T08:20:05.852Z,100070.53
2017-07-30T08:22:40.351Z,100069.12
2017-07-30T08:25:15.975Z,100072.21
2017-07-30T08:27:50.497Z,100079.34
2017-07-30T08:30:25.257Z,100075.20
2017-07-30T08:32:59.783Z,100081.36
2017-07-30T08:35:35.439Z,100079.38
2017-07-30T08:38:10.070Z,100079.33
2017-07-30T08:40:44.715Z,100081.50
2017-07-30T08:43:19.355Z,100089.01
2017-07-30T08:45:53.894Z,100081.30
2017-07-30T08:48:28.367Z,100085.47
2017-07-30T08:51:02.899Z,100101.22
2017-07-30T08:53:37.432Z,100094.21
2017-07-30T08:56:13.519Z,100098.66
2017-07-30T08:58:47.868Z,100097.02
2017-07-30T09:01:22.687Z,100103.09
2017-07-30T09:03:57.442Z,100109.91
2017-07-30T09:06:32.131Z,100112.80
2017-07-30T09:09:06.788Z,100111.72
2017-07-30T09:11:41.431Z,100124.45
2017-07-30T09:14:15.871Z,100120.37
2017-07-30T09:16:50.580Z,100120.55
2017-07-30T09:19:25.307Z,100127.02
2017-07-30T09:21:59.942Z,100128.55
2017-07-30T09:24:34.458Z,100129.14
2017-07-30T09:27:09.110Z,100133.02
2017-07-30T09:29:44.830Z,100127.33
2017-07-30T09:32:20.210Z,100121.01
2017-07-30T09:34:54.855Z,100140.33
2017-07-30T09:37:29.595Z,100146.96
2017-07-30T09:40:04.261Z,100140.68
2017-07-30T09:42:40.015Z,100150.08
2017-07-30T09:45:14.751Z,100146.44
2017-07-30T09:47:48.895Z,100144.20
2017-07-30T09:50:23.994Z,100143.41
2017-07-30T09:52:58.536Z,100149.95
2017-07-30T09:55:33.043Z,100146.97
2017-07-30T09:58:07.794Z,100153.70
2017-07-30T10:00:42.414Z,100155.08
2017-07-30T10:03:16.768Z,100159.48
2017-07-30T10:05:52.683Z,100162.42
2017-07-30T10:08:27.398Z,100159.23
2017-07-30T10:11:02.158Z,100158.77
2017-07-30T10:13:36.756Z,100154.72
2017-07-30T10:16:11.534Z,100165.14
2017-07-30T10:18:46.251Z,100161.74
2017-07-30T10:21:20.943Z,100163.43
2017-07-30T10:23:55.583Z,100170.13
2017-07-30T10:26:30.206Z,100167.89
2017-07-30T10:29:04.947Z,100162.25
2017-07-30T10:31:39.460Z,100158.48
2017-07-30T10:34:15.250Z,100144.71
2017-07-30T10:36:49.839Z,100137.67
2017-07-30T10:39:24.414Z,100152.52
2017-07-30T10:41:59.176Z,100145.21
2017-07-30T10:44:33.901Z,100151.27
2017-07-30T10:47:08.732Z,100144.76
2017-07-30T10:49:43.304Z,100140.52
2017-07-30T10:52:17.897Z,100145.19
2017-07-30T10:54:52.544Z,100143.54
2017-07-30T10:57:27.041Z,100145.36
2017-07-30T11:00:01.768Z,100141.88
2017-07-30T11:02:37.531Z,100148.73
2017-07-30T11:05:12.176Z,100157.60
2017-07-30T11:07:46.878Z,100151.23
2017-07-30T11:10:21.744Z,100143.27
2017-07-30T11:12:57.466Z,100151.12
2017-07-30T11:15:32.183Z,100155.32
2017-07-30T11:18:06.819Z,100160.53
2017-07-30T11:20:41.514Z,100151.63
2017-07-30T11:23:15.961Z,100146.61
2017-07-30T11:25:50.623Z,100147.55
2017-07-30T11:28:26.355Z,100147.55
2017-07-30T11:31:02.082Z,100151.80
2017-07-30T11:33:36.834Z,100143.03
2017-07-30T11:36:11.484Z,100142.56
2017-07-30T11:38:46.351Z,100150.53
2017-07-30T11:41:21.147Z,100162.37
2017-07-30T11:43:55.745Z,100161.42
2017-07-30T11:46:30.487Z,100160.80
2017-07-30T11:49:05.299Z,100171.42
2017-07-30T11:51:40.073Z,100176.37
2017-07-30T11:54:14.780Z,100160.97
2017-07-30T11:56:49.480Z,100171.16
2017-07-30T11:59:24.013Z,100166.19
2017-07-30T12:01:58.544Z,100174.62
2017-07-30T12:04:33.247Z,100170.20
2017-07-30T12:07:07.868Z,100171.63
2017-07-30T12:09:42.622Z,100167.44
2017-07-30T12:12:17.414Z,100165.92
2017-07-30T12:14:52.128Z,100164.75
2017-07-30T12:17:26.867Z,100175.95
2017-07-30T12:20:01.630Z,100179.23
2017-07-30T12:22:36.103Z,100176.14
2017-07-30T12:25:10.846Z,100186.69
2017-07-30T12:27:45.891Z,100181.09
2017-07-30T12:30:21.283Z,100187.36
2017-07-30T12:32:55.897Z,100169.98
2017-07-30T12:35:30.459Z,100178.36
2017-07-30T12:38:05.058Z,100172.37
2017-07-30T12:40:39.667Z,100178.92
2017-07-30T12:43:14.463Z,100170.97
2017-07-30T12:45:49.228Z,100174.13
2017-07-30T12:48:23.858Z,100174.45
2017-07-30T12:50:59.708Z,100175.31
2017-07-30T12:53:34.354Z,100190.41
2017-07-30T12:56:09.096Z,100175.97
2017-07-30T12:58:43.707Z,100181.46
2017-07-30T13:01:18.438Z,100186.19
2017-07-30T13:03:53.319Z,100182.17
2017-07-30T13:06:27.978Z,100191.93
2017-07-30T13:09:02.629Z,100193.32
2017-07-30T13:11:38.499Z,100188.33
2017-07-30T13:14:14.310Z,100192.25
2017-07-30T13:16:49.199Z,100196.30
2017-07-30T13:19:24.000Z,100198.42
2017-07-30T13:21:58.823Z,100200.17
2017-07-30T13:24:33.525Z,100197.84
2017-07-30T13:27:09.235Z,100205.53
2017-07-30T13:29:43.935Z,100207.66
2017-07-30T13:32:18.615Z,100202.58
2017-07-30T13:34:54.499Z,100226.11
2017-07-30T13:37:29.251Z,100218.94
2017-07-30T13:40:03.652Z,100219.09
2017-07-30T13:42:38.582Z,100222.78
2017-07-30T13:45:13.024Z,100225.28
2017-07-30T13:47:47.853Z,100249.20
2017-07-30T13:50:22.703Z,100240.31
2017-07-30T13:52:57.384Z,100234.86
2017-07-30T13:55:32.243Z,100286.52
2017-07-30T13:58:06.936Z,100236.73
2017-07-30T14:00:41.568Z,100244.20
2017-07-30T14:03:16.323Z,100253.26
2017-07-30T14:05:52.083Z,100245.78
2017-07-30T14:08:26.804Z,100248.27
2017-07-30T14:11:01.520Z,100256.17
2017-07-30T14:13:36.992Z,100277.30
2017-07-30T14:16:11.838Z,100257.63
2017-07-30T14:18:46.407Z,100285.02
2017-07-30T14:21:21.050Z,100279.77
2017-07-30T14:23:55.896Z,100274.05
2017-07-30T14:26:30.518Z,100275.53
2017-07-30T14:29:05.135Z,100289.05
2017-07-30T14:31:39.862Z,100287.27
2017-07-30T14:34:14.525Z,100279.34
2017-07-30T14:36:49.318Z,100285.55
2017-07-30T14:39:24.058Z,100284.19
2017-07-30T14:41:58.827Z,100294.48
2017-07-30T14:44:33.490Z,100289.75
2017-07-30T14:47:08.148Z,100293.97
2017-07-30T14:49:42.749Z,100297.02
2017-07-30T14:52:17.497Z,100304.91
2017-07-30T14:54:52.220Z,100307.52
2017-07-30T14:57:26.611Z,100305.27
2017-07-30T15:00:01.555Z,100314.23
2017-07-30T15:02:36.196Z,100317.98
2017-07-30T15:05:11.379Z,100321.13
2017-07-30T15:07:46.699Z,100326.08
2017-07-30T15:10:21.303Z,100329.78
2017-07-30T15:12:56.051Z,100330.89
2017-07-30T15:15:30.723Z,100338.00
2017-07-30T15:18:05.896Z,100338.23
2017-07-30T15:20:40.926Z,100352.43
2017-07-30T15:23:16.514Z,100344.67
2017-07-30T15:25:51.187Z,100355.55
2017-07-30T15:28:25.731Z,100355.76
2017-07-30T15:31:00.305Z,118681.03
2017-07-30T15:33:36.155Z,118681.03
2017-07-30T15:36:10.195Z,118681.03
2017-07-30T15:38:44.945Z,118681.03
2017-07-30T15:41:19.711Z,100355.39
2017-07-30T15:43:54.409Z,100357.26
2017-07-30T15:46:30.370Z,100348.82
2017-07-30T15:49:04.875Z,100352.63
2017-07-30T15:51:39.568Z,100348.95
2017-07-30T15:54:15.191Z,100350.97
2017-07-30T15:56:49.908Z,100361.75
2017-07-30T15:59:24.656Z,100362.22
2017-07-30T16:01:59.336Z,100353.81
2017-07-30T16:04:34.068Z,118681.03
2017-07-30T16:07:09.802Z,118681.03
2017-07-30T16:09:44.391Z,118681.03
2017-07-30T16:12:19.202Z,118681.03
2017-07-30T16:14:54.969Z,118681.03
2017-07-30T16:17:29.468Z,118681.03
2017-07-30T16:20:04.231Z,118681.03
2017-07-30T16:22:38.927Z,118681.03
2017-07-30T16:25:13.463Z,118681.03
2017-07-30T16:27:48.089Z,118681.03
2017-07-30T16:30:23.649Z,118681.03
2017-07-30T16:32:59.269Z,118681.03
2017-07-30T16:35:35.063Z,118681.03
2017-07-30T16:38:10.699Z,118681.03
2017-07-30T16:40:45.551Z,118681.03
2017-07-30T16:43:20.147Z,118681.03
2017-07-30T16:45:54.794Z,118681.03
2017-07-30T16:48:29.039Z,118681.03
2017-07-30T16:51:04.013Z,118681.03
2017-07-30T16:53:38.742Z,118681.03
2017-07-30T16:56:13.486Z,118681.03
2017-07-30T16:58:48.388Z,118681.03
2017-07-30T17:01:24.042Z,118681.03
2017-07-30T17:03:58.683Z,118681.03
2017-07-30T17:06:33.371Z,118681.03
2017-07-30T17:09:08.160Z,118681.03
2017-07-30T17:11:42.859Z,118681.03
2017-07-30T17:14:17.699Z,118681.03
2017-07-30T17:16:52.542Z,118681.03
2017-07-30T17:19:27.334Z,118681.03
2017-07-30T17:22:02.106Z,118681.03
2017-07-30T17:24:36.889Z,118681.03
2017-07-30T17:27:12.578Z,118681.03
2017-07-30T17:29:47.295Z,118681.03
2017-07-30T17:32:21.962Z,118681.03
2017-07-30T17:34:56.583Z,118681.03
2017-07-30T17:37:31.287Z,118681.03
2017-07-30T17:40:05.865Z,118681.03
2017-07-30T17:42:41.250Z,118681.03
2017-07-30T17:45:16.390Z,118681.03
2017-07-30T17:47:51.012Z,118681.03
2017-07-30T17:50:25.703Z,118681.03
2017-07-30T17:53:00.384Z,118681.03
2017-07-30T17:55:35.084Z,118681.03
2017-07-30T17:58:09.883Z,118681.03
2017-07-30T18:00:44.519Z,118681.03
2017-07-30T18:03:19.192Z,118681.03
2017-07-30T18:05:53.862Z,118681.03
2017-07-30T18:08:29.559Z,118681.03
2017-07-30T18:11:04.462Z,118681.03
2017-07-30T18:13:39.031Z,118681.03
2017-07-30T18:16:13.746Z,118681.03
2017-07-30T18:18:48.270Z,118681.03
2017-07-30T18:21:24.022Z,118681.03
2017-07-30T18:23:58.654Z,118681.03
2017-07-30T18:26:33.296Z,118681.03
2017-07-30T18:29:07.892Z,118681.03
2017-07-30T18:31:42.687Z,118681.03
2017-07-30T18:34:17.200Z,118681.03
2017-07-30T18:36:51.808Z,118681.03
2017-07-30T18:39:26.528Z,118681.03
2017-07-30T18:42:01.421Z,118681.03
2017-07-30T18:44:36.772Z,118681.03
2017-07-30T18:47:11.516Z,118681.03
2017-07-30T18:49:46.302Z,118681.03
2017-07-30T18:52:20.975Z,118681.03
2017-07-30T18:54:55.507Z,118681.03
2017-07-30T18:57:30.075Z,118681.03
2017-07-30T19:00:04.441Z,118681.03
2017-07-30T19:02:39.435Z,118681.03
2017-07-30T19:05:14.000Z,118681.03
2017-07-30T19:07:48.716Z,118681.03
2017-07-30T19:10:23.251Z,118681.03
2017-07-30T19:12:57.983Z,118681.03
2017-07-30T19:15:32.707Z,118681.03
2017-07-30T19:18:07.255Z,118681.03
2017-07-30T19:20:41.912Z,118681.03
2017-07-30T19:23:16.535Z,118681.03
2017-07-30T19:25:51.251Z,118681.03
2017-07-30T19:28:25.774Z,118681.03
2017-07-30T19:31:00.468Z,118681.03
2017-07-30T19:33:35.098Z,118681.03
2017-07-30T19:36:09.630Z,118681.03
2017-07-30T19:38:44.320Z,118681.03
2017-07-30T19:41:18.767Z,118681.03
2017-07-30T19:43:54.334Z,118681.03
2017-07-30T19:46:29.098Z,118681.03
2017-07-30T19:49:03.870Z,118681.03
2017-07-30T19:51:38.495Z,118681.03
2017-07-30T19:54:13.063Z,118681.03
2017-07-30T19:56:47.734Z,118681.03
2017-07-30T19:59:22.282Z,118681.03
2017-07-30T20:01:56.767Z,118681.03
2017-07-30T20:04:31.598Z,118681.03
2017-07-30T20:07:06.255Z,118681.03
2017-07-30T20:09:40.978Z,118681.03
2017-07-30T20:12:15.607Z,118681.03
2017-07-30T20:14:50.230Z,118681.03
2017-07-30T20:17:25.018Z,118681.03
2017-07-30T20:19:59.789Z,118681.03
2017-07-30T20:22:34.403Z,118681.03
2017-07-30T20:25:09.050Z,118681.03
2017-07-30T20:27:43.816Z,118681.03
2017-07-30T20:30:18.515Z,118681.03
2017-07-30T20:32:53.223Z,118681.03
2017-07-30T20:35:27.894Z,118681.03
2017-07-30T20:38:02.428Z,118681.03
2017-07-30T20:40:37.019Z,118681.03
2017-07-30T20:43:11.639Z,118681.03
2017-07-30T20:45:46.326Z,118681.03
2017-07-30T20:48:21.011Z,118681.03
2017-07-30T20:50:55.740Z,118681.03
2017-07-30T20:53:30.296Z,118681.03
2017-07-30T20:56:05.067Z,118681.03
2017-07-30T20:58:39.730Z,118681.03
2017-07-30T21:01:15.430Z,118681.03
2017-07-30T21:03:50.187Z,118681.03
2017-07-30T21:06:26.062Z,118681.03
2017-07-30T21:09:00.657Z,118681.03
2017-07-30T21:11:35.458Z,118681.03
2017-07-30T21:14:10.018Z,118681.03
2017-07-30T21:16:44.535Z,118681.03
2017-07-30T21:19:19.186Z,118681.03
2017-07-30T21:21:54.820Z,118681.03
2017-07-30T21:24:30.425Z,118681.03
2017-07-30T21:27:05.346Z,118681.03
2017-07-30T21:29:40.038Z,118681.03
2017-07-30T21:32:16.299Z,118681.03
2017-07-30T21:34:51.651Z,118681.03
2017-07-30T21:37:26.282Z,118681.03
2017-07-30T21:40:01.931Z,118681.03
2017-07-30T21:42:37.570Z,118681.03
2017-07-30T21:45:12.370Z,118681.03
2017-07-30T21:47:46.898Z,118681.03
2017-07-30T21:50:21.543Z,118681.03
2017-07-30T21:52:56.268Z,118681.03
2017-07-30T21:55:31.922Z,118681.03
2017-07-30T21:58:06.561Z,118681.03
2017-07-30T22:00:41.379Z,118681.03
2017-07-30T22:03:16.004Z,118681.03
2017-07-30T22:05:50.723Z,118681.03
2017-07-30T22:08:25.456Z,118681.03
2017-07-30T22:11:00.015Z,118681.03
2017-07-30T22:13:34.699Z,118681.03
2017-07-30T22:16:09.554Z,118681.03
2017-07-30T22:18:44.283Z,118681.03
2017-07-30T22:21:19.380Z,118681.03
2017-07-30T22:23:54.674Z,118681.03
2017-07-30T22:26:29.523Z,118681.03
2017-07-30T22:29:04.185Z,118681.03
2017-07-30T22:31:38.880Z,118681.03
2017-07-30T22:34:13.647Z,118681.03
2017-07-30T22:36:48.307Z,118681.03
2017-07-30T22:39:22.954Z,118681.03
2017-07-30T22:41:57.606Z,118681.03
2017-07-30T22:44:32.390Z,118681.03
2017-07-30T22:47:07.100Z,118681.03
2017-07-30T22:49:41.722Z,118681.03
2017-07-30T22:52:16.483Z,118681.03
2017-07-30T22:54:51.099Z,118681.03
2017-07-30T22:57:25.549Z,118681.03
2017-07-30T23:00:00.584Z,118681.03
2017-07-30T23:02:35.275Z,118681.03
2017-07-30T23:05:09.892Z,118681.03
2017-07-30T23:07:44.782Z,118681.03
2017-07-30T23:10:19.353Z,118681.03
2017-07-30T23:12:54.068Z,118681.03
2017-07-30T23:15:28.806Z,118681.03
2017-07-30T23:18:03.323Z,118681.03
2017-07-30T23:20:38.092Z,118681.03
2017-07-30T23:23:12.911Z,118681.03
2017-07-30T23:25:47.625Z,118681.03
2017-07-30T23:28:22.355Z,118681.03
2017-07-30T23:30:56.992Z,118681.03
2017-07-30T23:33:31.523Z,118681.03
2017-07-30T23:36:06.226Z,118681.03
2017-07-30T23:38:40.999Z,118681.03
2017-07-30T23:41:16.823Z,118681.03
2017-07-30T23:43:51.603Z,118681.03
2017-07-30T23:46:26.179Z,118681.03
2017-07-30T23:49:00.934Z,118681.03
2017-07-30T23:51:35.634Z,118681.03
2017-07-30T23:54:10.384Z,118681.03
2017-07-30T23:56:45.072Z,118681.03
2017-07-30T23:59:19.730Z,118681.03
